Time;durP1;ratioP1;P1;durP2;ratioP2;P2;SDS_P1;SDS_P2;PMS_P1;PMS_P2;Temp;Humidity;BMP_temperature;BMP_pressure;BME280_temperature;BME280_humidity;BME280_pressure;Samples;Min_cycle;Max_cycle;Signal;HPM_P1;HPM_P2
2022/09/21 00:01:11;;;;;;;1.33;1.23;;;;;;;8.68;72.46;99728.53;5075810;28;41065;-81
2022/09/21 00:03:40;;;;;;;1.37;1.23;;;;;;;8.64;72.34;99732.25;5075329;28;39576;-80
2022/09/21 00:06:10;;;;;;;2.00;1.37;;;;;;;8.60;72.34;99734.13;5075485;28;41734;-80
2022/09/21 00:08:38;;;;;;;2.07;1.33;;;;;;;8.58;72.39;99732.47;5092073;28;43811;-80
2022/09/21 00:11:07;;;;;;;1.30;1.20;;;;;;;8.55;72.34;99732.59;5093679;28;42228;-80
2022/09/21 00:13:36;;;;;;;1.23;1.10;;;;;;;8.53;72.07;99729.19;5093213;28;39930;-80
2022/09/21 00:16:05;;;;;;;0.97;0.97;;;;;;;8.50;72.54;99734.56;5058814;28;41642;-80
2022/09/21 00:18:34;;;;;;;2.70;1.10;;;;;;;8.48;72.34;99734.63;5075151;28;43761;-80
2022/09/21 00:21:02;;;;;;;3.30;1.30;;;;;;;8.04;72.40;99673.00;5059084;28;42257;-79
2022/09/21 00:23:29;;;;;;;1.57;1.20;;;;;;;8.44;72.20;99740.09;5075191;28;40116;-79
2022/09/21 00:26:07;;;;;;;2.23;1.40;;;;;;;8.41;72.21;99745.47;5075154;28;42677;-80
2022/09/21 00:28:35;;;;;;;1.60;1.17;;;;;;;8.38;72.12;99742.97;5074942;28;43239;-80
2022/09/21 00:31:05;;;;;;;1.83;1.30;;;;;;;8.35;72.46;99741.31;5058442;28;41454;-79
2022/09/21 00:33:33;;;;;;;0.90;0.90;;;;;;;8.32;72.22;99738.78;5075118;28;40143;-80
2022/09/21 00:36:06;;;;;;;1.10;1.00;;;;;;;8.29;72.21;99745.00;5074490;28;40470;-80
2022/09/21 00:38:34;;;;;;;1.17;1.07;;;;;;;8.26;72.23;99744.28;5074974;28;41715;-80
2022/09/21 00:41:02;;;;;;;1.50;1.10;;;;;;;8.05;72.26;99716.94;5075267;28;41127;-80
2022/09/21 00:43:34;;;;;;;1.07;0.87;;;;;;;8.17;72.48;99742.84;5074872;28;38998;-80
2022/09/21 00:46:05;;;;;;;1.90;1.10;;;;;;;8.13;72.30;99741.25;5072207;28;41650;-80
2022/09/21 00:48:33;;;;;;;2.43;1.00;;;;;;;8.01;72.41;99720.63;5074694;28;41242;-80
2022/09/21 00:51:05;;;;;;;1.77;1.00;;;;;;;8.08;72.58;99743.22;5058456;28;42398;-80
2022/09/21 00:53:32;;;;;;;0.80;0.80;;;;;;;7.93;72.66;99728.81;5074546;28;39923;-80
2022/09/21 00:56:02;;;;;;;1.03;0.87;;;;;;;8.00;72.39;99747.91;5093128;28;41520;-79
2022/09/21 00:58:37;;;;;;;1.33;1.17;;;;;;;7.88;72.42;99729.91;5074709;28;41457;-80
2022/09/21 01:01:05;;;;;;;0.80;0.80;;;;;;;7.84;72.20;99729.16;5058878;28;41239;-80
2022/09/21 01:03:33;;;;;;;1.23;0.90;;;;;;;7.91;72.20;99756.19;5074830;28;40132;-80
2022/09/21 01:06:01;;;;;;;1.03;0.83;;;;;;;7.88;72.85;99749.25;5075172;28;41711;-80
2022/09/21 01:08:30;;;;;;;3.60;1.03;;;;;;;7.87;73.41;99738.75;5074225;28;41828;-80
2022/09/21 01:11:17;;;;;;;2.67;1.10;;;;;;;7.72;73.45;99729.63;5058108;28;41198;-80
2022/09/21 01:14:03;;;;;;;1.13;0.90;;;;;;;7.83;73.19;99753.81;5074888;28;39407;-79
2022/09/21 01:16:36;;;;;;;1.93;1.10;;;;;;;7.72;72.90;99744.59;5057707;28;42401;-79
2022/09/21 01:19:25;;;;;;;1.30;0.93;;;;;;;7.80;73.27;99755.69;5092241;28;42775;-80
2022/09/21 01:22:03;;;;;;;2.87;1.20;;;;;;;7.77;73.00;99758.47;5074445;28;41109;-80
2022/09/21 01:24:50;;;;;;;2.20;1.27;;;;;;;7.74;73.46;99758.56;5074899;28;38770;-79
2022/09/21 01:27:49;;;;;;;1.97;1.17;;;;;;;7.72;72.96;99765.69;5088433;28;42698;-80
2022/09/21 01:30:20;;;;;;;1.30;1.20;;;;;;;7.67;72.75;99763.19;5074536;28;41316;-80
2022/09/21 01:32:55;;;;;;;1.47;1.33;;;;;;;7.55;73.19;99742.53;5074889;28;41835;-80
2022/09/21 01:35:27;;;;;;;2.30;1.27;;;;;;;7.64;73.57;99763.34;5074316;28;38917;-80
2022/09/21 01:37:58;;;;;;;1.30;1.20;;;;;;;7.64;73.09;99767.75;5074592;28;40708;-79
2022/09/21 01:40:30;;;;;;;1.17;0.87;;;;;;;7.61;73.31;99767.84;5089540;28;42820;-80
2022/09/21 01:43:01;;;;;;;1.67;1.33;;;;;;;7.60;73.43;99771.38;5090576;28;42390;-80
2022/09/21 01:45:33;;;;;;;1.57;1.30;;;;;;;7.58;73.29;99771.44;5074423;28;40120;-80
2022/09/21 01:48:02;;;;;;;1.23;1.13;;;;;;;7.54;73.39;99773.31;5091908;28;42750;-80
2022/09/21 01:50:35;;;;;;;1.60;1.30;;;;;;;7.55;73.53;99779.44;5077829;28;42707;-80
2022/09/21 01:53:08;;;;;;;1.80;1.20;;;;;;;7.52;73.15;99769.91;5077330;28;41461;-80
2022/09/21 01:55:43;;;;;;;2.23;1.47;;;;;;;7.58;73.45;99780.22;5074938;28;41008;-80
2022/09/21 01:58:17;;;;;;;1.63;1.30;;;;;;;7.64;72.88;99780.91;5060923;28;41378;-80
2022/09/21 02:00:48;;;;;;;2.57;1.60;;;;;;;7.68;72.80;99777.25;5091723;28;42691;-80
2022/09/21 02:03:22;;;;;;;1.43;1.23;;;;;;;7.71;72.98;99774.50;5093152;28;42249;-80
2022/09/21 02:05:50;;;;;;;1.30;1.17;;;;;;;7.75;72.83;99779.63;5078107;28;40058;-80
2022/09/21 02:08:18;;;;;;;3.03;1.27;;;;;;;7.81;73.16;99771.47;5077091;28;42594;-79
2022/09/21 02:10:49;;;;;;;1.40;1.30;;;;;;;7.85;73.05;99781.00;5077610;28;41950;-80
2022/09/21 02:13:19;;;;;;;1.53;1.30;;;;;;;7.90;73.80;99778.19;5077312;28;41589;-80
2022/09/21 02:16:07;;;;;;;3.53;1.60;;;;;;;7.91;74.87;99770.19;5095583;28;39966;-80
2022/09/21 02:18:43;;;;;;;3.67;1.70;;;;;;;7.90;74.09;99775.56;5077223;28;41027;-80
2022/09/21 02:21:25;;;;;;;1.77;1.47;;;;;;;7.89;74.13;99771.19;5077441;28;42130;-80
2022/09/21 02:24:03;;;;;;;1.70;1.43;;;;;;;7.79;74.32;99751.38;5077016;28;41094;-80
2022/09/21 02:26:36;;;;;;;1.50;1.40;;;;;;;7.86;74.52;99768.66;5091428;28;40083;-80
2022/09/21 02:29:16;;;;;;;1.90;1.60;;;;;;;7.83;74.53;99763.50;5093812;28;41725;-80
2022/09/21 02:31:51;;;;;;;1.50;1.40;;;;;;;7.77;74.85;99764.59;5091408;28;43061;-80
2022/09/21 02:34:27;;;;;;;2.67;1.20;;;;;;;7.69;74.81;99755.22;5077386;28;41095;-80
2022/09/21 02:37:02;;;;;;;1.37;1.27;;;;;;;7.65;75.12;99759.78;5076796;28;38902;-79
2022/09/21 02:39:35;;;;;;;1.57;1.47;;;;;;;7.60;75.24;99755.56;5092164;28;41448;-80
2022/09/21 02:42:09;;;;;;;1.40;1.30;;;;;;;7.45;74.88;99746.44;5077171;28;42915;-80
2022/09/21 02:44:40;;;;;;;1.60;1.50;;;;;;;7.50;74.71;99765.59;5076877;28;40878;-80
2022/09/21 02:47:15;;;;;;;1.07;1.00;;;;;;;7.43;74.40;99767.56;5094378;28;39379;-80
2022/09/21 02:49:50;;;;;;;1.33;1.20;;;;;;;7.29;74.68;99750.53;5076900;28;41689;-80
2022/09/21 02:52:19;;;;;;;2.00;1.10;;;;;;;7.34;74.90;99780.22;5091601;28;42836;-80
2022/09/21 02:54:51;;;;;;;1.37;1.27;;;;;;;7.18;74.62;99769.31;5076819;28;40860;-79
2022/09/21 02:57:21;;;;;;;1.50;1.13;;;;;;;7.13;74.52;99760.75;5060077;28;39075;-81
2022/09/21 02:59:50;;;;;;;1.77;1.20;;;;;;;7.18;74.65;99779.88;5093716;28;41550;-79
2022/09/21 03:02:19;;;;;;;3.17;1.23;;;;;;;7.13;74.91;99777.41;5076315;28;42324;-79
2022/09/21 03:04:48;;;;;;;1.10;1.10;;;;;;;7.09;74.96;99772.28;5076636;28;42233;-79
2022/09/21 03:07:17;;;;;;;2.10;1.20;;;;;;;7.04;74.84;99772.47;5093467;28;39874;-79
2022/09/21 03:09:45;;;;;;;1.43;1.23;;;;;;;7.01;74.97;99769.06;5094525;28;41681;-79
2022/09/21 03:12:13;;;;;;;0.90;0.90;;;;;;;6.97;74.70;99775.31;5076340;28;43383;-80
2022/09/21 03:14:40;;;;;;;1.10;1.00;;;;;;;6.90;74.52;99768.56;5076583;28;42217;-79
2022/09/21 03:17:08;;;;;;;1.83;1.37;;;;;;;6.99;74.88;99773.50;5076491;28;39905;-79
2022/09/21 03:19:38;;;;;;;1.10;1.00;;;;;;;6.92;74.63;99750.94;5076379;28;41652;-79
2022/09/21 03:22:05;;;;;;;2.90;1.53;;;;;;;7.13;75.03;99771.28;5094337;28;43781;-80
2022/09/21 03:24:48;;;;;;;2.00;1.50;;;;;;;7.26;74.95;99775.22;5076266;28;41327;-79
2022/09/21 03:27:17;;;;;;;2.40;1.83;;;;;;;7.35;75.25;99776.66;5076295;28;39220;-79
2022/09/21 03:29:45;;;;;;;1.93;1.73;;;;;;;7.42;74.83;99789.56;5059325;28;41926;-80
2022/09/21 03:32:14;;;;;;;1.87;1.73;;;;;;;7.47;74.85;99781.50;5075939;28;41885;-80
2022/09/21 03:34:43;;;;;;;3.40;1.80;;;;;;;7.57;75.19;99794.31;5076226;28;41289;-80
2022/09/21 03:37:11;;;;;;;1.20;1.00;;;;;;;7.54;75.07;99767.22;5059047;28;38976;-79
2022/09/21 03:39:39;;;;;;;2.40;1.70;;;;;;;7.53;75.14;99760.22;5042994;28;43079;-80
2022/09/21 03:42:08;;;;;;;2.57;1.70;;;;;;;7.83;75.72;99795.16;5075977;28;42807;-80
2022/09/21 03:44:36;;;;;;;1.97;1.50;;;;;;;7.85;75.82;99794.19;5076326;28;40784;-80
2022/09/21 03:47:05;;;;;;;1.93;1.53;;;;;;;7.74;75.70;99777.03;5059216;28;38823;-80
2022/09/21 03:49:33;;;;;;;2.00;1.80;;;;;;;7.76;75.43;99783.13;5093925;28;42266;-79
2022/09/21 03:52:03;;;;;;;3.77;1.50;;;;;;;7.88;75.71;99798.50;5076033;28;41785;-80
2022/09/21 03:54:31;;;;;;;1.37;1.27;;;;;;;7.88;75.61;99798.50;5075932;28;41220;-79
2022/09/21 03:56:58;;;;;;;2.37;1.30;;;;;;;7.91;75.74;99798.38;5059128;28;38959;-79
2022/09/21 03:59:26;;;;;;;1.73;1.57;;;;;;;7.91;76.14;99803.66;5075513;28;41893;-80
2022/09/21 04:01:54;;;;;;;2.00;1.80;;;;;;;7.91;77.00;99798.38;5093726;28;43548;-79
2022/09/21 04:04:21;;;;;;;1.80;1.70;;;;;;;7.91;76.60;99806.31;5075481;28;42237;-79
2022/09/21 04:06:49;;;;;;;1.70;1.60;;;;;;;7.93;77.07;99804.44;5093810;28;40094;-80
2022/09/21 04:09:18;;;;;;;1.50;1.30;;;;;;;7.93;76.90;99813.22;5092393;28;41723;-80
2022/09/21 04:11:47;;;;;;;1.67;1.50;;;;;;;7.92;76.69;99808.00;5074992;28;42643;-79
2022/09/21 04:14:14;;;;;;;1.50;1.40;;;;;;;7.82;76.54;99798.69;5075412;28;41344;-80
2022/09/21 04:16:43;;;;;;;1.60;1.50;;;;;;;7.84;76.49;99812.69;5075769;28;39654;-80
2022/09/21 04:19:10;;;;;;;3.17;1.60;;;;;;;7.80;76.33;99816.34;5093346;28;41698;-80
2022/09/21 04:21:39;;;;;;;2.10;1.87;;;;;;;7.75;76.75;99821.81;5075467;28;42594;-80
2022/09/21 04:24:07;;;;;;;1.70;1.60;;;;;;;7.71;76.61;99821.97;5093107;28;43316;-79
2022/09/21 04:26:36;;;;;;;2.17;1.93;;;;;;;7.66;76.29;99826.56;5075576;28;38740;-79
2022/09/21 04:29:05;;;;;;;2.67;2.20;;;;;;;7.62;76.42;99824.94;5058162;28;41744;-79
2022/09/21 04:31:34;;;;;;;2.10;1.90;;;;;;;7.44;76.52;99803.56;5075524;28;41501;-79
2022/09/21 04:34:01;;;;;;;2.27;2.00;;;;;;;7.46;76.38;99822.81;5074787;28;42256;-80
2022/09/21 04:36:31;;;;;;;1.93;1.83;;;;;;;7.37;76.63;99817.00;5074202;28;38700;-79
2022/09/21 04:39:01;;;;;;;2.10;1.90;;;;;;;7.34;76.69;99823.22;5074539;28;40404;-80
2022/09/21 04:41:28;;;;;;;1.70;1.60;;;;;;;7.30;76.27;99821.59;5075104;28;42040;-80
2022/09/21 04:43:57;;;;;;;2.47;1.77;;;;;;;7.25;76.30;99826.19;5091843;28;42170;-79
2022/09/21 04:46:25;;;;;;;1.57;1.47;;;;;;;7.18;76.49;99822.00;5074956;28;38891;-79
2022/09/21 04:48:53;;;;;;;1.63;1.53;;;;;;;7.12;76.19;99820.47;5074776;28;40639;-79
2022/09/21 04:51:21;;;;;;;2.53;1.67;;;;;;;7.09;76.44;99833.72;5074783;28;43006;-80
2022/09/21 04:53:49;;;;;;;3.07;1.60;;;;;;;7.05;76.27;99828.59;5092347;28;42556;-79
2022/09/21 04:56:16;;;;;;;1.77;1.63;;;;;;;6.93;76.53;99811.44;5057926;28;38474;-80
2022/09/21 04:58:44;;;;;;;1.50;1.40;;;;;;;6.98;76.44;99824.47;5074673;28;41100;-79
2022/09/21 05:01:14;;;;;;;2.27;1.43;;;;;;;6.95;76.30;99832.44;5074492;28;42109;-79
2022/09/21 05:03:44;;;;;;;2.47;1.97;;;;;;;6.92;76.68;99835.19;5091302;28;42455;-80
2022/09/21 05:06:12;;;;;;;1.67;1.43;;;;;;;6.88;76.67;99839.69;5058120;28;39109;-79
2022/09/21 05:11:25;;;;;;;1.30;1.20;;;;;;;6.73;76.32;99832.28;5057955;28;41899;-79
2022/09/21 05:13:53;;;;;;;2.20;1.40;;;;;;;6.73;76.08;99851.56;5092123;28;42492;-80
2022/09/21 05:16:22;;;;;;;1.93;1.70;;;;;;;6.70;76.34;99850.78;5092459;28;39920;-80
2022/09/21 05:18:53;;;;;;;1.60;1.40;;;;;;;6.67;76.24;99850.91;5092158;28;41794;-79
2022/09/21 05:21:21;;;;;;;1.60;1.43;;;;;;;6.29;75.93;99802.06;5074862;28;42803;-79
2022/09/21 05:23:50;;;;;;;1.73;1.63;;;;;;;6.57;76.16;99846.81;5077816;28;42290;-79
2022/09/21 05:26:18;;;;;;;1.57;1.30;;;;;;;6.53;76.17;99838.16;5078671;28;38786;-79
2022/09/21 05:28:46;;;;;;;1.93;1.40;;;;;;;6.57;76.10;99845.03;5077677;28;40816;-80
2022/09/21 05:31:35;;;;;;;2.43;1.23;;;;;;;6.65;76.06;99861.47;5077922;28;42700;-79
2022/09/21 05:34:12;;;;;;;2.73;1.63;;;;;;;6.71;76.14;99853.38;5072540;28;42279;-80
2022/09/21 05:36:49;;;;;;;2.67;1.40;;;;;;;6.64;76.55;99838.69;5060447;28;39967;-79
2022/09/21 05:39:17;;;;;;;2.87;1.77;;;;;;;6.84;76.30;99865.25;5094325;28;42146;-79
2022/09/21 05:41:45;;;;;;;1.97;1.77;;;;;;;6.96;76.36;99868.41;5077991;28;41803;-79
2022/09/21 05:44:15;;;;;;;2.93;1.80;;;;;;;7.02;76.67;99873.50;5060703;28;42165;-79
2022/09/21 05:46:49;;;;;;;2.23;1.60;;;;;;;7.06;76.35;99880.38;5095773;28;40499;-79
2022/09/21 05:49:21;;;;;;;2.93;1.83;;;;;;;7.13;76.44;99876.66;5060502;28;41719;-78
2022/09/21 05:52:01;;;;;;;2.30;1.87;;;;;;;7.22;76.44;99876.34;5061019;28;41921;-79
2022/09/21 05:54:43;;;;;;;5.50;1.30;;;;;;;7.30;76.58;99878.72;5077374;28;41468;-79
2022/09/21 05:57:17;;;;;;;1.43;1.30;;;;;;;7.36;76.61;99878.53;5077449;28;40043;-79
2022/09/21 06:00:02;;;;;;;1.70;1.27;;;;;;;7.44;76.81;99874.72;5077608;28;40876;-80
2022/09/21 06:03:05;;;;;;;1.37;1.27;;;;;;;7.47;76.35;99882.53;5077196;28;43305;-80
2022/09/21 06:05:35;;;;;;;2.10;1.90;;;;;;;7.45;76.27;99883.47;5095488;28;42983;-80
2022/09/21 06:08:02;;;;;;;2.50;2.00;;;;;;;7.46;76.10;99880.78;5077454;28;39852;-80
2022/09/21 06:10:34;;;;;;;2.80;1.80;;;;;;;7.38;76.09;99867.03;5077163;28;40687;-79
2022/09/21 06:13:02;;;;;;;2.50;1.73;;;;;;;7.44;76.16;99863.31;5060462;28;41934;-80
2022/09/21 06:15:29;;;;;;;2.00;1.40;;;;;;;7.66;75.70;99888.06;5077161;28;41101;-79
2022/09/21 06:17:58;;;;;;;1.33;1.23;;;;;;;7.67;75.94;99878.34;5094894;28;40667;-80
2022/09/21 06:20:25;;;;;;;1.30;1.20;;;;;;;7.90;75.55;99896.88;5060170;28;40979;-79
2022/09/21 06:23:00;;;;;;;1.27;1.10;;;;;;;8.04;75.33;99891.97;5094828;28;42736;-80
2022/09/21 06:25:28;;;;;;;1.63;1.40;;;;;;;8.15;75.16;99902.16;5091886;28;42804;-80
2022/09/21 06:27:56;;;;;;;1.40;1.30;;;;;;;8.17;74.85;99882.69;5076793;28;38875;-79
2022/09/21 06:30:24;;;;;;;1.30;1.20;;;;;;;8.41;74.98;99903.84;5077087;28;42756;-79
2022/09/21 06:32:51;;;;;;;1.30;1.20;;;;;;;8.59;74.43;99903.19;5093365;28;42811;-79
2022/09/21 06:35:19;;;;;;;1.10;1.07;;;;;;;8.71;74.50;99900.06;5076285;28;41237;-80
2022/09/21 06:37:47;;;;;;;1.77;1.63;;;;;;;8.91;74.02;99905.44;5076647;28;38905;-79
2022/09/21 06:40:16;;;;;;;1.40;1.30;;;;;;;9.06;73.95;99903.13;5077068;28;41463;-80
2022/09/21 06:42:44;;;;;;;1.67;1.50;;;;;;;9.07;73.49;99875.78;5076564;28;44416;-80
2022/09/21 06:45:11;;;;;;;1.63;1.40;;;;;;;9.37;73.24;99895.69;5059905;28;41391;-79
2022/09/21 06:47:39;;;;;;;3.77;1.80;;;;;;;9.52;73.17;99902.97;5059985;28;39132;-80
2022/09/21 06:50:08;;;;;;;1.80;1.70;;;;;;;9.60;72.52;99900.88;5094846;28;41470;-80
2022/09/21 06:52:37;;;;;;;1.97;1.70;;;;;;;9.73;72.57;99899.44;5093392;28;42358;-80
2022/09/21 06:55:06;;;;;;;1.70;1.60;;;;;;;9.86;72.26;99896.28;5094549;28;42430;-80
2022/09/21 06:57:35;;;;;;;2.30;1.60;;;;;;;10.11;72.22;99906.66;5094374;28;40161;-80
2022/09/21 07:00:04;;;;;;;1.80;1.70;;;;;;;10.28;71.60;99899.69;5059532;28;40745;-80
2022/09/21 07:02:31;;;;;;;4.30;2.17;;;;;;;10.47;71.32;99901.53;5059528;28;42722;-80
2022/09/21 07:04:59;;;;;;;1.83;1.60;;;;;;;10.64;71.05;99906.91;5094498;28;42184;-80
2022/09/21 07:07:29;;;;;;;1.97;1.87;;;;;;;10.80;70.89;99907.94;5094308;28;39960;-80
2022/09/21 07:09:57;;;;;;;2.30;2.00;;;;;;;10.91;70.46;99905.63;5076593;28;42024;-81
2022/09/21 07:12:26;;;;;;;2.87;2.00;;;;;;;10.92;70.30;99890.59;5076458;28;43240;-80
2022/09/21 07:14:55;;;;;;;2.80;2.40;;;;;;;11.18;69.85;99911.41;5059771;28;41164;-80
2022/09/21 07:17:23;;;;;;;4.73;3.40;;;;;;;11.33;69.96;99909.81;5059461;28;38803;-81
2022/09/21 07:19:51;;;;;;;3.33;3.03;;;;;;;11.46;69.67;99913.59;5076013;28;40800;-81
2022/09/21 07:22:18;;;;;;;3.17;2.87;;;;;;;11.56;69.49;99914.84;5075892;28;43293;-81
2022/09/21 07:24:46;;;;;;;3.37;2.37;;;;;;;11.68;69.47;99908.94;5093142;28;43520;-80
2022/09/21 07:27:14;;;;;;;3.23;2.23;;;;;;;11.84;68.99;99923.19;5093932;28;40007;-80
2022/09/21 07:29:41;;;;;;;2.50;2.30;;;;;;;11.94;68.93;99926.22;5076567;28;43419;-80
2022/09/21 07:32:12;;;;;;;2.10;1.87;;;;;;;11.88;68.60;99906.16;5093065;28;42845;-81
2022/09/21 07:34:40;;;;;;;2.47;2.20;;;;;;;12.09;68.25;99924.59;5076113;28;42866;-80
2022/09/21 07:37:07;;;;;;;2.60;2.40;;;;;;;12.07;68.18;99913.19;5093663;28;40010;-81
2022/09/21 07:39:37;;;;;;;2.40;2.17;;;;;;;12.26;66.88;99931.66;5076049;28;41789;-81
2022/09/21 07:42:06;;;;;;;2.23;2.00;;;;;;;12.31;67.14;99935.81;5075764;28;43219;-81
2022/09/21 07:44:33;;;;;;;3.03;1.83;;;;;;;12.38;67.09;99938.97;5058589;28;41239;-80
2022/09/21 07:47:02;;;;;;;2.90;2.10;;;;;;;12.25;66.29;99925.50;5093000;28;41853;-81
2022/09/21 07:49:31;;;;;;;3.30;3.00;;;;;;;12.34;66.51;99948.06;5075669;28;42002;-80
2022/09/21 07:51:58;;;;;;;2.30;2.10;;;;;;;12.36;66.09;99944.41;5075719;28;41585;-81
2022/09/21 07:54:26;;;;;;;2.13;2.03;;;;;;;12.40;66.14;99943.28;5075731;28;41215;-80
2022/09/21 07:59:39;;;;;;;2.10;1.93;;;;;;;12.49;65.97;99940.13;5075523;28;41650;-80
2022/09/21 08:02:06;;;;;;;2.93;1.73;;;;;;;12.59;66.27;99936.06;5092449;28;42685;-80
2022/09/21 08:04:36;;;;;;;2.50;2.30;;;;;;;12.76;66.02;99937.81;5075593;28;41428;-81
2022/09/21 08:07:04;;;;;;;3.47;2.50;;;;;;;12.83;65.74;99939.22;5093683;28;39368;-80
2022/09/21 08:09:32;;;;;;;3.27;2.60;;;;;;;12.70;65.18;99935.50;5058353;28;40935;-81
2022/09/21 08:12:00;;;;;;;4.10;3.07;;;;;;;12.73;64.83;99937.13;5075598;28;41648;-80
2022/09/21 08:14:28;;;;;;;2.30;2.10;;;;;;;12.86;65.05;99948.78;5058355;28;42938;-81
2022/09/21 08:16:55;;;;;;;2.97;2.50;;;;;;;12.86;64.88;99948.78;5075527;28;38854;-80
2022/09/21 08:19:25;;;;;;;4.23;3.10;;;;;;;12.92;65.08;99948.47;5058200;28;40739;-80
2022/09/21 08:21:54;;;;;;;2.97;2.57;;;;;;;12.90;65.14;99937.06;5092390;28;43504;-80
2022/09/21 08:24:22;;;;;;;3.77;2.87;;;;;;;12.99;64.50;99928.56;5075026;28;43233;-80
2022/09/21 08:26:51;;;;;;;2.33;2.13;;;;;;;13.27;64.45;99943.88;5058434;28;39217;-80
2022/09/21 08:29:19;;;;;;;3.27;2.97;;;;;;;13.44;63.57;99945.59;5075084;28;40734;-81
2022/09/21 08:31:47;;;;;;;3.50;3.20;;;;;;;13.60;63.63;99949.94;5092031;28;42635;-80
2022/09/21 08:34:15;;;;;;;2.70;2.40;;;;;;;13.72;62.95;99956.41;5092819;28;43050;-80
2022/09/21 08:36:42;;;;;;;2.63;2.43;;;;;;;13.81;63.42;99945.19;5074513;28;39690;-81
2022/09/21 08:39:13;;;;;;;3.53;2.60;;;;;;;13.89;63.17;99953.59;5074360;28;42064;-81
2022/09/21 08:41:59;;;;;;;4.33;3.27;;;;;;;13.93;62.56;99949.81;5075247;28;44176;-80
2022/09/21 08:44:32;;;;;;;2.60;2.40;;;;;;;14.12;62.52;99951.38;5074860;28;43713;-81
2022/09/21 08:47:04;;;;;;;3.17;2.87;;;;;;;14.45;62.23;99967.19;5089984;28;40344;-80
2022/09/21 08:49:35;;;;;;;2.90;2.70;;;;;;;14.70;62.26;99962.94;5072004;28;42480;-80
2022/09/21 08:52:06;;;;;;;3.67;3.10;;;;;;;14.83;60.87;99959.50;5074143;28;42714;-81
2022/09/21 08:54:42;;;;;;;2.87;2.27;;;;;;;15.10;60.32;99976.41;5074589;28;41045;-80
2022/09/21 08:57:12;;;;;;;3.20;2.47;;;;;;;15.26;60.18;99971.81;5087893;28;40956;-81
2022/09/21 08:59:44;;;;;;;3.20;2.93;;;;;;;15.43;58.80;99971.63;5074458;28;40743;-80
2022/09/21 09:02:32;;;;;;;3.10;2.80;;;;;;;15.55;57.82;99963.78;5089185;28;42579;-81
2022/09/21 09:05:07;;;;;;;3.17;2.87;;;;;;;15.91;57.74;99974.72;5058109;28;41037;-81
2022/09/21 09:08:04;;;;;;;2.83;2.63;;;;;;;16.22;58.11;99969.97;5074574;28;40417;-81
2022/09/21 09:10:38;;;;;;;2.93;2.63;;;;;;;16.64;57.55;99985.78;5092824;28;42818;-81
2022/09/21 09:13:25;;;;;;;3.03;2.77;;;;;;;16.99;57.08;99974.41;5090657;28;42844;-80
2022/09/21 09:16:11;;;;;;;2.57;2.37;;;;;;;17.19;55.25;99977.38;5058001;28;41266;-80
2022/09/21 09:18:44;;;;;;;3.00;2.27;;;;;;;17.54;54.21;99987.38;5090275;28;40089;-81
2022/09/21 09:21:16;;;;;;;2.47;2.00;;;;;;;17.86;53.34;99998.41;5089305;28;42077;-80
2022/09/21 09:23:51;;;;;;;2.53;2.33;;;;;;;17.78;53.09;99952.59;5090898;28;42630;-80
2022/09/21 09:26:24;;;;;;;2.37;2.17;;;;;;;18.17;52.33;99992.47;5074401;28;42637;-79
2022/09/21 09:28:55;;;;;;;2.87;2.40;;;;;;;18.11;50.29;100009.00;5091108;28;40340;-81
2022/09/21 09:31:28;;;;;;;4.23;2.97;;;;;;;17.77;50.96;100008.00;5057067;28;42723;-81
2022/09/21 09:34:00;;;;;;;3.30;2.60;;;;;;;17.65;52.47;99983.94;5073524;28;41754;-80
2022/09/21 09:36:32;;;;;;;2.60;2.40;;;;;;;17.86;51.98;99999.28;5056895;28;41215;-80
2022/09/21 09:39:04;;;;;;;2.57;2.27;;;;;;;17.84;52.66;99987.81;5090116;28;40735;-80
2022/09/21 09:41:55;;;;;;;3.53;3.20;;;;;;;17.81;51.54;100000.56;5087741;28;42791;-80
2022/09/21 09:44:39;;;;;;;3.00;2.73;;;;;;;17.79;52.41;99987.31;5073099;28;44063;-80
2022/09/21 09:47:13;;;;;;;2.37;2.00;;;;;;;17.74;53.24;99988.59;5074069;28;41388;-81
2022/09/21 09:49:58;;;;;;;2.67;2.47;;;;;;;17.66;53.87;99970.44;5073903;28;38920;-80
2022/09/21 09:52:26;;;;;;;2.70;2.50;;;;;;;17.63;54.25;99975.13;5073352;28;42405;-80
2022/09/21 09:54:54;;;;;;;3.50;3.10;;;;;;;17.63;54.08;99977.78;5091676;28;42791;-80
2022/09/21 09:57:29;;;;;;;2.30;2.10;;;;;;;17.84;53.09;99978.91;5073351;28;40893;-80
2022/09/21 10:00:00;;;;;;;2.53;2.33;;;;;;;18.17;52.80;99976.38;5073770;28;38921;-80
2022/09/21 10:02:29;;;;;;;4.27;2.50;;;;;;;18.42;52.62;99977.19;5056661;28;40572;-81
2022/09/21 10:05:04;;;;;;;2.10;1.90;;;;;;;18.76;51.96;99983.50;5056980;28;42208;-80
2022/09/21 10:07:38;;;;;;;2.83;2.23;;;;;;;18.84;50.52;99986.44;5071168;28;42107;-81
2022/09/21 10:10:27;;;;;;;2.63;2.10;;;;;;;18.79;50.25;99992.16;5077121;28;39465;-80
2022/09/21 10:13:02;;;;;;;2.43;2.23;;;;;;;19.32;49.42;99976.28;5077056;28;42742;-80
2022/09/21 10:15:30;;;;;;;2.77;2.17;;;;;;;20.90;46.52;100000.63;5060048;28;41720;-81
2022/09/21 10:18:04;;;;;;;1.67;1.47;;;;;;;22.20;44.41;99992.53;5076319;28;43764;-81
2022/09/21 10:20:33;;;;;;;1.73;1.60;;;;;;;23.24;41.75;100010.56;5076787;28;40108;-81
2022/09/21 10:23:02;;;;;;;2.17;1.50;;;;;;;24.11;40.21;100007.38;5094470;28;42085;-80
2022/09/21 10:25:31;;;;;;;2.17;1.50;;;;;;;24.21;40.23;99998.16;5076584;28;41620;-81
2022/09/21 10:28:01;;;;;;;1.60;1.50;;;;;;;24.52;38.79;100025.72;5076076;28;43507;-79
2022/09/21 10:30:37;;;;;;;3.03;1.70;;;;;;;24.73;38.75;100017.22;5076890;28;40550;-81
2022/09/21 10:33:19;;;;;;;1.77;1.40;;;;;;;25.55;37.13;100010.47;5074862;28;42687;-80
2022/09/21 10:35:51;;;;;;;1.60;1.50;;;;;;;26.47;36.10;100003.06;5076215;28;41965;-82
2022/09/21 10:38:21;;;;;;;1.67;1.57;;;;;;;27.39;34.67;100028.94;5076313;28;40972;-82
2022/09/21 10:40:49;;;;;;;1.97;1.40;;;;;;;28.27;32.85;100033.31;5059661;28;38697;-81
2022/09/21 10:43:31;;;;;;;2.63;1.47;;;;;;;29.00;32.07;100027.25;5076256;28;40551;-81
2022/09/21 10:45:59;;;;;;;1.57;1.30;;;;;;;29.46;32.16;100006.13;5076272;28;41977;-82
2022/09/21 10:48:28;;;;;;;1.67;1.50;;;;;;;29.65;30.71;100025.53;5094025;28;42224;-81
2022/09/21 10:50:57;;;;;;;1.70;1.47;;;;;;;30.40;30.27;100007.06;5076075;28;40233;-81
2022/09/21 10:53:28;;;;;;;1.30;1.20;;;;;;;31.53;28.42;100035.09;5092879;28;41741;-81
2022/09/21 10:56:00;;;;;;;0.90;0.90;;;;;;;31.65;28.12;100036.25;5089987;28;43671;-81
2022/09/21 10:58:30;;;;;;;1.20;1.10;;;;;;;31.56;27.68;100037.44;5075805;28;42320;-82
2022/09/21 11:01:11;;;;;;;1.40;1.30;;;;;;;31.48;28.35;100034.03;5094088;28;39850;-81
2022/09/21 11:03:50;;;;;;;2.23;1.30;;;;;;;31.20;28.73;100017.63;5093091;28;41748;-82
2022/09/21 11:06:23;;;;;;;1.37;1.00;;;;;;;31.93;28.61;100021.59;5058980;28;41969;-81
2022/09/21 11:08:56;;;;;;;1.43;1.10;;;;;;;33.71;25.71;100033.50;5093228;28;43287;-82
2022/09/21 11:11:47;;;;;;;1.15;1.00;;;;;;;35.89;23.07;100064.91;5075535;28;40004;-82
2022/09/21 11:14:27;;;;;;;2.65;0.90;;;;;;;37.27;21.57;100054.56;5075661;28;42784;-81
2022/09/21 11:16:58;;;;;;;0.98;0.90;;;;;;;38.13;21.27;100032.66;5076114;28;42759;-81
2022/09/21 11:19:35;;;;;;;0.80;0.80;;;;;;;39.17;20.65;100039.53;5075400;28;42225;-80
2022/09/21 11:22:12;;;;;;;1.67;1.08;;;;;;;40.13;18.69;100063.06;5090464;28;39992;-81
2022/09/21 11:24:49;;;;;;;1.48;0.80;;;;;;;40.80;18.98;100048.75;5075507;28;42694;-80
2022/09/21 11:27:23;;;;;;;1.05;0.60;;;;;;;40.88;17.94;100044.69;5090533;28;42932;-79
2022/09/21 11:30:01;;;;;;;1.02;0.80;;;;;;;38.98;19.30;100021.47;5075401;28;41941;-80
2022/09/21 11:32:53;;;;;;;1.17;1.08;;;;;;;37.55;22.21;100003.22;5075412;28;38866;-82
2022/09/21 11:35:35;;;;;;;0.90;0.90;;;;;;;36.92;22.58;99987.41;5074766;28;40854;-82
2022/09/21 11:38:13;;;;;;;0.63;0.63;;;;;;;37.99;21.17;99999.72;5092993;28;43531;-82
2022/09/21 11:41:20;;;;;;;1.48;0.70;;;;;;;39.25;19.27;100002.22;5072362;28;42286;-80
2022/09/21 11:44:18;;;;;;;2.10;1.00;;;;;;;36.50;21.22;99978.31;5069254;28;39128;-79
2022/09/21 11:46:57;;;;;;;0.67;0.67;;;;;;;36.42;21.47;99989.72;5090460;28;41812;-79
2022/09/21 11:49:39;;;;;;;0.68;0.68;;;;;;;37.51;19.36;99986.28;5093426;28;42863;-81
2022/09/21 11:52:20;;;;;;;1.58;0.70;;;;;;;38.71;18.24;100011.03;5074719;28;42287;-82
2022/09/21 11:55:04;;;;;;;0.90;0.70;;;;;;;39.56;18.13;99992.41;5075237;28;39943;-80
2022/09/21 11:57:35;;;;;;;0.98;0.88;;;;;;;40.45;17.67;100002.03;5090409;28;42688;-79
2022/09/21 12:00:14;;;;;;;1.10;0.80;;;;;;;41.33;17.83;99987.72;5093669;28;42738;-79
2022/09/21 12:03:24;;;;;;;1.02;0.73;;;;;;;42.02;17.08;99998.66;5057913;28;41217;-80
2022/09/21 12:06:11;;;;;;;0.77;0.70;;;;;;;42.50;16.23;99989.84;5093334;28;40710;-78